Impacts TAF Board
For situational awareness. Not to be used for flight planning purposes.
IDs:

KPHX - Phoenix/Sky Harbor, AZ, US

Issued at 2320 UTC 28 Nov 2020
Updated at 0241 UTC 29 Nov 2020
Potential Impact None Slight Moderate High
Time0151Z 29/03Z 29/04Z 29/05Z 29/06Z 29/07Z 29/08Z 29/09Z 29/10Z 29/11Z 29/12Z 29/13Z 29/14Z 29/15Z>>
Type OBS PRVL PRVL PRVL PRVL PRVL PRVL PRVL PRVL PRVL PRVL PRVL PRVL PRVL
VIS 10 >6 >6 >6 >6 >6 >6 >6 >6 >6 >6 >6 >6 >6
CIG -- -- -- -- -- -- -- -- -- -- -- -- -- --
Cover CLR SKC SKC SKC SKC SKC SKC SKC SKC SKC SKC SKC SKC SKC
FltCat VFR VFR VFR VFR VFR VFR VFR VFR VFR VFR VFR VFR VFR VFR
WX -- -- -- -- -- -- -- -- -- -- -- -- -- --
WDir 270 280 280 100 100 100 100 100 100 100 100 100 100 100
WSpd 3 5 5 4 4 4 4 4 4 4 4 4 4 4
WGst -- -- -- -- -- -- -- -- -- -- -- -- -- --
R07/25
XWnd -0 1 1 -1 -1 -1 -1 -1 -1 -1 -1 -1 -1 -1
HWnd -3 -5 -5 4 4 4 4 4 4 4 4 4 4 4
R08/26
XWnd -0 1 1 -1 -1 -1 -1 -1 -1 -1 -1 -1 -1 -1
HWnd -3 -5 -5 4 4 4 4 4 4 4 4 4 4 4
Raw TAF
KPHX 282320Z 2900/3006 28005KT P6SM SKC
  FM290500 10004KT P6SM SKC
  FM292200 29005KT P6SM SKC
  FM300400 08006KT P6SM SKC


Raw METAR
KPHX 290151Z 27003KT 10SM CLR 17/M02 A3008 RMK AO2 SLP181 T01721022 $
KPHX 290051Z 27007KT 10SM CLR 18/M02 A3007 RMK AO2 SLP178 T01831022 $
KPHX 282351Z 27009KT 10SM CLR 20/M03 A3008 RMK AO2 SLP178 T02001028 10217 20172 56010 $

METAR Board
Radar Display
Forecast Discussion
For situational awareness. Not to be used for flight planning purposes.